sensor_id;sensor_type;location;lat;lon;timestamp;pressure;altitude;pressure_sealevel;temperature;humidity
24230;BME280;12362;50.004;8.006;2023-03-19T00:01:59;100326.88;;;9.66;100.00
24230;BME280;12362;50.004;8.006;2023-03-19T00:04:25;100322.69;;;9.64;100.00
24230;BME280;12362;50.004;8.006;2023-03-19T00:06:51;100323.22;;;9.53;100.00
24230;BME280;12362;50.004;8.006;2023-03-19T00:09:17;100322.63;;;9.65;100.00
24230;BME280;12362;50.004;8.006;2023-03-19T00:11:47;100318.84;;;9.72;100.00
24230;BME280;12362;50.004;8.006;2023-03-19T00:14:13;100320.31;;;9.78;100.00
24230;BME280;12362;50.004;8.006;2023-03-19T00:16:38;100328.34;;;9.90;100.00
24230;BME280;12362;50.004;8.006;2023-03-19T00:19:04;100329.34;;;9.88;100.00
24230;BME280;12362;50.004;8.006;2023-03-19T00:21:31;100338.34;;;9.97;100.00
24230;BME280;12362;50.004;8.006;2023-03-19T00:23:57;100337.13;;;9.88;100.00
24230;BME280;12362;50.004;8.006;2023-03-19T00:26:30;100334.63;;;9.68;100.00
24230;BME280;12362;50.004;8.006;2023-03-19T00:28:57;100339.59;;;9.72;100.00
24230;BME280;12362;50.004;8.006;2023-03-19T00:31:24;100346.44;;;9.73;100.00
24230;BME280;12362;50.004;8.006;2023-03-19T00:33:50;100341.84;;;9.80;100.00
24230;BME280;12362;50.004;8.006;2023-03-19T00:36:16;100348.84;;;9.78;100.00
24230;BME280;12362;50.004;8.006;2023-03-19T00:38:43;100340.28;;;9.76;100.00
24230;BME280;12362;50.004;8.006;2023-03-19T00:41:09;100341.97;;;9.77;100.00
24230;BME280;12362;50.004;8.006;2023-03-19T00:43:35;100338.69;;;9.73;100.00
24230;BME280;12362;50.004;8.006;2023-03-19T00:46:00;100355.34;;;9.68;100.00
24230;BME280;12362;50.004;8.006;2023-03-19T00:48:26;100349.88;;;9.55;100.00
24230;BME280;12362;50.004;8.006;2023-03-19T00:50:55;100345.69;;;9.53;100.00
24230;BME280;12362;50.004;8.006;2023-03-19T00:53:20;100342.88;;;9.57;100.00
24230;BME280;12362;50.004;8.006;2023-03-19T00:55:46;100345.69;;;9.53;100.00
24230;BME280;12362;50.004;8.006;2023-03-19T00:58:11;100340.50;;;9.53;100.00
24230;BME280;12362;50.004;8.006;2023-03-19T01:00:38;100337.56;;;9.60;100.00
24230;BME280;12362;50.004;8.006;2023-03-19T01:03:04;100334.19;;;9.58;100.00
24230;BME280;12362;50.004;8.006;2023-03-19T01:05:31;100334.19;;;9.58;100.00
24230;BME280;12362;50.004;8.006;2023-03-19T01:07:58;100331.91;;;9.52;100.00
24230;BME280;12362;50.004;8.006;2023-03-19T01:10:24;100323.91;;;9.38;100.00
24230;BME280;12362;50.004;8.006;2023-03-19T01:12:50;100324.47;;;9.45;100.00
24230;BME280;12362;50.004;8.006;2023-03-19T01:15:16;100327.97;;;9.44;100.00
24230;BME280;12362;50.004;8.006;2023-03-19T01:17:42;100322.00;;;9.42;100.00
24230;BME280;12362;50.004;8.006;2023-03-19T01:20:09;100319.75;;;9.53;100.00
24230;BME280;12362;50.004;8.006;2023-03-19T01:22:39;100320.88;;;9.47;100.00
24230;BME280;12362;50.004;8.006;2023-03-19T01:25:06;100327.19;;;9.42;100.00
24230;BME280;12362;50.004;8.006;2023-03-19T01:27:32;100331.91;;;9.52;100.00
24230;BME280;12362;50.004;8.006;2023-03-19T01:30:00;100336.16;;;9.53;100.00
24230;BME280;12362;50.004;8.006;2023-03-19T01:32:46;100333.84;;;9.47;100.00
24230;BME280;12362;50.004;8.006;2023-03-19T01:35:29;100348.75;;;9.42;100.00
24230;BME280;12362;50.004;8.006;2023-03-19T01:37:55;100350.59;;;9.40;100.00
24230;BME280;12362;50.004;8.006;2023-03-19T01:40:21;100351.31;;;9.42;100.00
24230;BME280;12362;50.004;8.006;2023-03-19T01:45:57;100343.94;;;9.35;100.00
24230;BME280;12362;50.004;8.006;2023-03-19T01:48:50;100343.72;;;9.39;100.00
24230;BME280;12362;50.004;8.006;2023-03-19T01:51:22;100346.66;;;9.32;100.00
24230;BME280;12362;50.004;8.006;2023-03-19T01:54:08;100339.69;;;9.32;100.00
24230;BME280;12362;50.004;8.006;2023-03-19T01:56:52;100350.13;;;9.31;100.00
24230;BME280;12362;50.004;8.006;2023-03-19T01:59:35;100341.47;;;9.32;100.00
24230;BME280;12362;50.004;8.006;2023-03-19T02:02:06;100338.75;;;9.35;100.00
24230;BME280;12362;50.004;8.006;2023-03-19T02:04:35;100343.75;;;9.19;100.00
24230;BME280;12362;50.004;8.006;2023-03-19T02:07:03;100341.75;;;9.06;100.00
24230;BME280;12362;50.004;8.006;2023-03-19T02:09:29;100332.22;;;9.06;100.00
24230;BME280;12362;50.004;8.006;2023-03-19T02:11:56;100339.75;;;9.12;100.00
24230;BME280;12362;50.004;8.006;2023-03-19T02:14:22;100339.66;;;9.14;100.00
24230;BME280;12362;50.004;8.006;2023-03-19T02:16:49;100338.72;;;9.16;100.00
24230;BME280;12362;50.004;8.006;2023-03-19T02:19:29;100336.88;;;9.18;100.00
24230;BME280;12362;50.004;8.006;2023-03-19T02:21:57;100337.06;;;9.14;100.00
24230;BME280;12362;50.004;8.006;2023-03-19T02:24:30;100328.59;;;9.10;100.00
24230;BME280;12362;50.004;8.006;2023-03-19T02:27:02;100344.44;;;9.04;100.00
24230;BME280;12362;50.004;8.006;2023-03-19T02:29:29;100335.94;;;9.01;100.00
24230;BME280;12362;50.004;8.006;2023-03-19T02:31:57;100340.34;;;8.99;100.00
24230;BME280;12362;50.004;8.006;2023-03-19T02:37:04;100345.75;;;9.13;100.00
24230;BME280;12362;50.004;8.006;2023-03-19T02:42:21;100348.03;;;9.01;100.00
24230;BME280;12362;50.004;8.006;2023-03-19T02:44:48;100350.63;;;9.01;100.00
24230;BME280;12362;50.004;8.006;2023-03-19T02:47:14;100349.03;;;8.98;100.00
24230;BME280;12362;50.004;8.006;2023-03-19T02:49:40;100350.31;;;9.08;100.00
24230;BME280;12362;50.004;8.006;2023-03-19T02:52:06;100351.28;;;9.05;100.00
24230;BME280;12362;50.004;8.006;2023-03-19T02:54:31;100353.34;;;8.98;100.00
24230;BME280;12362;50.004;8.006;2023-03-19T02:56:56;100363.91;;;8.93;100.00
24230;BME280;12362;50.004;8.006;2023-03-19T02:59:22;100367.00;;;9.01;100.00
24230;BME280;12362;50.004;8.006;2023-03-19T03:01:48;100365.97;;;9.05;100.00
24230;BME280;12362;50.004;8.006;2023-03-19T03:04:13;100355.63;;;9.05;100.00
24230;BME280;12362;50.004;8.006;2023-03-19T03:06:41;100350.56;;;9.02;100.00
24230;BME280;12362;50.004;8.006;2023-03-19T03:09:07;100346.16;;;9.04;100.00
24230;BME280;12362;50.004;8.006;2023-03-19T03:11:33;100350.75;;;8.98;100.00
24230;BME280;12362;50.004;8.006;2023-03-19T03:13:58;100357.00;;;8.94;100.00
24230;BME280;12362;50.004;8.006;2023-03-19T03:16:25;100351.41;;;8.83;100.00
24230;BME280;12362;50.004;8.006;2023-03-19T03:18:51;100348.59;;;8.69;100.00
24230;BME280;12362;50.004;8.006;2023-03-19T03:21:18;100356.91;;;8.55;100.00
24230;BME280;12362;50.004;8.006;2023-03-19T03:23:46;100361.94;;;8.38;100.00
24230;BME280;12362;50.004;8.006;2023-03-19T03:26:12;100360.13;;;8.40;100.00
24230;BME280;12362;50.004;8.006;2023-03-19T03:28:38;100359.28;;;8.18;100.00
24230;BME280;12362;50.004;8.006;2023-03-19T03:31:03;100365.44;;;8.16;100.00
24230;BME280;12362;50.004;8.006;2023-03-19T03:33:29;100365.56;;;8.11;100.00
24230;BME280;12362;50.004;8.006;2023-03-19T03:35:55;100373.03;;;7.98;100.00
24230;BME280;12362;50.004;8.006;2023-03-19T03:38:22;100370.88;;;7.64;100.00
24230;BME280;12362;50.004;8.006;2023-03-19T03:40:51;100371.75;;;7.40;100.00
24230;BME280;12362;50.004;8.006;2023-03-19T03:43:19;100376.09;;;7.40;100.00
24230;BME280;12362;50.004;8.006;2023-03-19T03:45:46;100373.69;;;7.35;100.00
24230;BME280;12362;50.004;8.006;2023-03-19T03:48:13;100370.69;;;7.23;100.00
24230;BME280;12362;50.004;8.006;2023-03-19T03:50:39;100378.03;;;7.11;100.00
24230;BME280;12362;50.004;8.006;2023-03-19T03:53:08;100374.69;;;6.84;100.00
24230;BME280;12362;50.004;8.006;2023-03-19T03:55:34;100379.38;;;6.73;100.00
24230;BME280;12362;50.004;8.006;2023-03-19T03:58:01;100382.19;;;6.66;100.00
24230;BME280;12362;50.004;8.006;2023-03-19T04:00:27;100392.91;;;6.54;100.00
24230;BME280;12362;50.004;8.006;2023-03-19T04:02:53;100393.34;;;6.40;100.00
24230;BME280;12362;50.004;8.006;2023-03-19T04:05:18;100387.00;;;6.25;100.00
24230;BME280;12362;50.004;8.006;2023-03-19T04:07:44;100391.78;;;6.36;100.00
24230;BME280;12362;50.004;8.006;2023-03-19T04:10:11;100391.28;;;6.24;100.00
24230;BME280;12362;50.004;8.006;2023-03-19T04:12:37;100385.22;;;6.27;100.00
24230;BME280;12362;50.004;8.006;2023-03-19T04:15:06;100383.47;;;6.27;100.00
24230;BME280;12362;50.004;8.006;2023-03-19T04:17:32;100393.06;;;6.22;100.00
24230;BME280;12362;50.004;8.006;2023-03-19T04:19:58;100394.03;;;6.20;100.00
24230;BME280;12362;50.004;8.006;2023-03-19T04:22:24;100397.03;;;6.06;100.00
24230;BME280;12362;50.004;8.006;2023-03-19T04:24:49;100399.78;;;6.00;100.00
24230;BME280;12362;50.004;8.006;2023-03-19T04:27:15;100398.66;;;6.09;100.00
24230;BME280;12362;50.004;8.006;2023-03-19T04:29:41;100407.50;;;6.00;100.00
24230;BME280;12362;50.004;8.006;2023-03-19T04:32:07;100405.06;;;5.97;100.00
24230;BME280;12362;50.004;8.006;2023-03-19T04:34:33;100410.28;;;5.94;100.00
24230;BME280;12362;50.004;8.006;2023-03-19T04:36:59;100409.19;;;6.03;100.00
24230;BME280;12362;50.004;8.006;2023-03-19T04:39:25;100412.34;;;6.11;100.00
24230;BME280;12362;50.004;8.006;2023-03-19T04:41:51;100410.06;;;6.02;100.00
24230;BME280;12362;50.004;8.006;2023-03-19T04:44:23;100417.88;;;5.99;100.00
24230;BME280;12362;50.004;8.006;2023-03-19T04:46:49;100409.91;;;5.79;100.00
24230;BME280;12362;50.004;8.006;2023-03-19T04:49:17;100418.38;;;5.82;100.00
24230;BME280;12362;50.004;8.006;2023-03-19T04:51:44;100409.91;;;5.79;100.00
24230;BME280;12362;50.004;8.006;2023-03-19T04:54:09;100410.16;;;5.68;100.00
24230;BME280;12362;50.004;8.006;2023-03-19T04:56:35;100426.25;;;5.78;100.00
24230;BME280;12362;50.004;8.006;2023-03-19T04:59:01;100415.75;;;5.84;100.00
24230;BME280;12362;50.004;8.006;2023-03-19T05:01:26;100424.13;;;5.92;100.00
24230;BME280;12362;50.004;8.006;2023-03-19T05:04:02;100421.41;;;5.66;100.00
24230;BME280;12362;50.004;8.006;2023-03-19T05:06:29;100422.59;;;5.54;100.00
24230;BME280;12362;50.004;8.006;2023-03-19T05:08:56;100421.75;;;5.54;100.00
24230;BME280;12362;50.004;8.006;2023-03-19T05:11:22;100426.44;;;5.69;100.00
24230;BME280;12362;50.004;8.006;2023-03-19T05:14:10;100422.03;;;5.74;100.00
24230;BME280;12362;50.004;8.006;2023-03-19T05:17:02;100433.91;;;5.79;100.00
24230;BME280;12362;50.004;8.006;2023-03-19T05:19:37;100441.75;;;5.75;100.00
24230;BME280;12362;50.004;8.006;2023-03-19T05:22:06;100453.34;;;5.59;100.00
24230;BME280;12362;50.004;8.006;2023-03-19T05:24:32;100457.13;;;5.47;100.00
24230;BME280;12362;50.004;8.006;2023-03-19T05:26:59;100460.47;;;5.51;100.00
24230;BME280;12362;50.004;8.006;2023-03-19T05:29:31;100461.88;;;5.61;100.00
24230;BME280;12362;50.004;8.006;2023-03-19T05:32:10;100451.25;;;5.73;100.00
24230;BME280;12362;50.004;8.006;2023-03-19T05:34:37;100445.16;;;5.77;100.00
24230;BME280;12362;50.004;8.006;2023-03-19T05:37:02;100447.53;;;5.83;100.00
24230;BME280;12362;50.004;8.006;2023-03-19T05:39:28;100453.41;;;5.88;100.00
24230;BME280;12362;50.004;8.006;2023-03-19T05:41:58;100463.38;;;6.00;100.00
24230;BME280;12362;50.004;8.006;2023-03-19T05:44:28;100458.59;;;6.15;100.00
24230;BME280;12362;50.004;8.006;2023-03-19T05:47:15;100461.13;;;6.17;100.00
24230;BME280;12362;50.004;8.006;2023-03-19T05:49:46;100464.50;;;6.19;100.00
24230;BME280;12362;50.004;8.006;2023-03-19T05:52:12;100459.41;;;6.17;100.00
24230;BME280;12362;50.004;8.006;2023-03-19T05:54:38;100455.50;;;6.31;100.00
24230;BME280;12362;50.004;8.006;2023-03-19T05:57:21;100456.91;;;6.41;100.00
24230;BME280;12362;50.004;8.006;2023-03-19T06:00:04;100458.06;;;6.59;100.00
24230;BME280;12362;50.004;8.006;2023-03-19T06:02:31;100460.81;;;6.80;100.00
24230;BME280;12362;50.004;8.006;2023-03-19T06:05:17;100466.13;;;7.02;100.00
24230;BME280;12362;50.004;8.006;2023-03-19T06:07:42;100474.94;;;7.20;100.00
24230;BME280;12362;50.004;8.006;2023-03-19T06:10:15;100469.41;;;7.31;100.00
24230;BME280;12362;50.004;8.006;2023-03-19T06:12:41;100474.13;;;7.18;100.00
24230;BME280;12362;50.004;8.006;2023-03-19T06:15:24;100483.56;;;7.19;100.00
24230;BME280;12362;50.004;8.006;2023-03-19T06:18:16;100482.94;;;7.13;100.00
24230;BME280;12362;50.004;8.006;2023-03-19T06:20:42;100481.03;;;7.18;100.00
24230;BME280;12362;50.004;8.006;2023-03-19T06:23:08;100489.38;;;7.26;100.00
24230;BME280;12362;50.004;8.006;2023-03-19T06:25:33;100485.47;;;7.39;100.00
24230;BME280;12362;50.004;8.006;2023-03-19T06:28:17;100482.53;;;7.49;100.00
24230;BME280;12362;50.004;8.006;2023-03-19T06:30:44;100480.56;;;7.56;100.00
24230;BME280;12362;50.004;8.006;2023-03-19T06:33:41;100482.03;;;7.63;100.00
24230;BME280;12362;50.004;8.006;2023-03-19T06:36:07;100487.66;;;7.74;100.00
24230;BME280;12362;50.004;8.006;2023-03-19T06:38:33;100485.59;;;7.83;100.00
24230;BME280;12362;50.004;8.006;2023-03-19T06:41:00;100491.16;;;7.96;100.00
24230;BME280;12362;50.004;8.006;2023-03-19T06:43:26;100489.88;;;8.07;100.00
24230;BME280;12362;50.004;8.006;2023-03-19T06:45:51;100492.84;;;8.19;100.00
24230;BME280;12362;50.004;8.006;2023-03-19T06:48:17;100496.63;;;8.34;100.00
24230;BME280;12362;50.004;8.006;2023-03-19T06:50:44;100494.22;;;8.51;100.00
24230;BME280;12362;50.004;8.006;2023-03-19T06:53:11;100492.84;;;8.64;100.00
24230;BME280;12362;50.004;8.006;2023-03-19T06:55:36;100496.44;;;8.81;100.00
24230;BME280;12362;50.004;8.006;2023-03-19T06:58:02;100502.91;;;8.93;100.00
24230;BME280;12362;50.004;8.006;2023-03-19T07:00:28;100494.75;;;9.02;100.00
24230;BME280;12362;50.004;8.006;2023-03-19T07:02:54;100506.50;;;9.10;100.00
24230;BME280;12362;50.004;8.006;2023-03-19T07:05:20;100507.59;;;9.24;100.00
24230;BME280;12362;50.004;8.006;2023-03-19T07:07:45;100501.19;;;9.33;100.00
24230;BME280;12362;50.004;8.006;2023-03-19T07:10:11;100497.53;;;9.37;100.00
24230;BME280;12362;50.004;8.006;2023-03-19T07:12:37;100494.00;;;9.39;100.00
24230;BME280;12362;50.004;8.006;2023-03-19T07:15:03;100506.06;;;9.40;100.00
24230;BME280;12362;50.004;8.006;2023-03-19T07:17:29;100503.31;;;9.43;100.00
24230;BME280;12362;50.004;8.006;2023-03-19T07:19:54;100509.41;;;9.42;100.00
24230;BME280;12362;50.004;8.006;2023-03-19T07:22:20;100514.22;;;9.51;100.00
24230;BME280;12362;50.004;8.006;2023-03-19T07:24:46;100514.06;;;9.54;100.00
24230;BME280;12362;50.004;8.006;2023-03-19T07:27:12;100515.22;;;9.67;100.00
24230;BME280;12362;50.004;8.006;2023-03-19T07:29:38;100520.41;;;9.67;100.00
24230;BME280;12362;50.004;8.006;2023-03-19T07:32:04;100515.69;;;9.77;100.00
24230;BME280;12362;50.004;8.006;2023-03-19T07:34:44;100514.78;;;9.78;100.00
24230;BME280;12362;50.004;8.006;2023-03-19T07:37:10;100515.34;;;9.84;100.00
24230;BME280;12362;50.004;8.006;2023-03-19T07:39:36;100504.69;;;9.90;100.00
24230;BME280;12362;50.004;8.006;2023-03-19T07:42:02;100506.06;;;9.98;100.00
24230;BME280;12362;50.004;8.006;2023-03-19T07:44:28;100512.41;;;10.11;100.00
24230;BME280;12362;50.004;8.006;2023-03-19T07:46:56;100504.19;;;10.20;100.00
24230;BME280;12362;50.004;8.006;2023-03-19T07:49:22;100509.00;;;10.29;100.00
24230;BME280;12362;50.004;8.006;2023-03-19T07:51:57;100509.25;;;10.42;100.00
24230;BME280;12362;50.004;8.006;2023-03-19T07:54:23;100507.31;;;10.47;100.00
24230;BME280;12362;50.004;8.006;2023-03-19T07:56:49;100506.72;;;10.59;100.00
24230;BME280;12362;50.004;8.006;2023-03-19T07:59:22;100502.63;;;10.72;100.00
24230;BME280;12362;50.004;8.006;2023-03-19T08:01:49;100503.56;;;10.87;100.00
24230;BME280;12362;50.004;8.006;2023-03-19T08:04:14;100499.47;;;11.00;100.00
24230;BME280;12362;50.004;8.006;2023-03-19T08:06:40;100503.75;;;11.01;100.00
24230;BME280;12362;50.004;8.006;2023-03-19T08:09:06;100504.16;;;11.11;100.00
24230;BME280;12362;50.004;8.006;2023-03-19T08:11:32;100507.28;;;11.17;100.00
24230;BME280;12362;50.004;8.006;2023-03-19T08:14:01;100505.06;;;11.27;100.00
24230;BME280;12362;50.004;8.006;2023-03-19T08:16:30;100492.28;;;11.22;100.00
24230;BME280;12362;50.004;8.006;2023-03-19T08:38:17;100477.44;;;11.75;100.00
24230;BME280;12362;50.004;8.006;2023-03-19T08:40:44;100482.28;;;11.98;100.00
24230;BME280;12362;50.004;8.006;2023-03-19T08:43:10;100473.47;;;12.00;100.00
24230;BME280;12362;50.004;8.006;2023-03-19T08:45:36;100489.84;;;12.18;100.00
24230;BME280;12362;50.004;8.006;2023-03-19T08:48:08;100482.56;;;12.24;100.00
24230;BME280;12362;50.004;8.006;2023-03-19T08:53:21;100496.47;;;12.08;100.00
24230;BME280;12362;50.004;8.006;2023-03-19T08:56:02;100501.63;;;12.25;100.00
24230;BME280;12362;50.004;8.006;2023-03-19T09:07:07;100494.09;;;13.11;100.00
24230;BME280;12362;50.004;8.006;2023-03-19T09:09:33;100479.84;;;13.32;100.00
24230;BME280;12362;50.004;8.006;2023-03-19T09:15:21;100473.94;;;13.72;100.00
24230;BME280;12362;50.004;8.006;2023-03-19T09:17:53;100473.66;;;13.76;100.00
24230;BME280;12362;50.004;8.006;2023-03-19T09:20:19;100471.16;;;13.89;100.00
24230;BME280;12362;50.004;8.006;2023-03-19T09:22:52;100478.50;;;13.82;100.00
24230;BME280;12362;50.004;8.006;2023-03-19T09:25:18;100485.69;;;13.65;100.00
24230;BME280;12362;50.004;8.006;2023-03-19T09:27:51;100485.19;;;13.59;100.00
24230;BME280;12362;50.004;8.006;2023-03-19T09:30:19;100488.75;;;13.71;100.00
24230;BME280;12362;50.004;8.006;2023-03-19T09:32:49;100483.09;;;13.79;100.00
24230;BME280;12362;50.004;8.006;2023-03-19T09:35:15;100484.19;;;13.75;100.00
24230;BME280;12362;50.004;8.006;2023-03-19T09:37:51;100488.09;;;13.82;100.00
24230;BME280;12362;50.004;8.006;2023-03-19T09:40:26;100489.72;;;13.84;100.00
24230;BME280;12362;50.004;8.006;2023-03-19T09:46:23;100487.34;;;13.94;100.00
24230;BME280;12362;50.004;8.006;2023-03-19T09:48:58;100489.44;;;14.03;100.00
24230;BME280;12362;50.004;8.006;2023-03-19T09:51:34;100485.38;;;14.11;100.00
24230;BME280;12362;50.004;8.006;2023-03-19T09:54:24;100488.41;;;14.19;100.00
24230;BME280;12362;50.004;8.006;2023-03-19T09:56:54;100482.81;;;14.25;100.00
24230;BME280;12362;50.004;8.006;2023-03-19T09:59:25;100483.81;;;14.37;100.00
24230;BME280;12362;50.004;8.006;2023-03-19T10:10:26;100473.50;;;14.61;100.00
24230;BME280;12362;50.004;8.006;2023-03-19T10:13:09;100479.59;;;15.01;100.00
24230;BME280;12362;50.004;8.006;2023-03-19T10:15:39;100476.44;;;14.96;100.00
24230;BME280;12362;50.004;8.006;2023-03-19T10:18:30;100477.88;;;14.87;100.00
24230;BME280;12362;50.004;8.006;2023-03-19T10:21:06;100472.97;;;15.22;100.00
24230;BME280;12362;50.004;8.006;2023-03-19T10:23:48;100475.88;;;15.17;100.00
24230;BME280;12362;50.004;8.006;2023-03-19T10:26:18;100467.75;;;15.34;100.00
24230;BME280;12362;50.004;8.006;2023-03-19T10:28:54;100475.50;;;14.97;100.00
24230;BME280;12362;50.004;8.006;2023-03-19T10:36:29;100479.19;;;14.68;100.00
24230;BME280;12362;50.004;8.006;2023-03-19T10:38:58;100483.06;;;14.49;100.00
24230;BME280;12362;50.004;8.006;2023-03-19T10:41:42;100483.88;;;14.49;100.00
24230;BME280;12362;50.004;8.006;2023-03-19T10:44:41;100491.94;;;14.72;100.00
24230;BME280;12362;50.004;8.006;2023-03-19T10:47:24;100493.47;;;14.89;100.00
24230;BME280;12362;50.004;8.006;2023-03-19T10:49:50;100489.22;;;14.74;100.00
24230;BME280;12362;50.004;8.006;2023-03-19T10:52:32;100494.72;;;14.43;100.00
24230;BME280;12362;50.004;8.006;2023-03-19T10:55:17;100496.16;;;14.21;100.00
24230;BME280;12362;50.004;8.006;2023-03-19T10:57:44;100505.81;;;14.05;100.00
24230;BME280;12362;50.004;8.006;2023-03-19T11:00:23;100514.47;;;13.77;100.00
24230;BME280;12362;50.004;8.006;2023-03-19T11:02:51;100514.44;;;13.50;100.00
24230;BME280;12362;50.004;8.006;2023-03-19T11:05:26;100523.28;;;13.47;100.00
24230;BME280;12362;50.004;8.006;2023-03-19T11:08:04;100514.47;;;13.77;100.00
24230;BME280;12362;50.004;8.006;2023-03-19T11:10:32;100518.34;;;14.28;100.00
24230;BME280;12362;50.004;8.006;2023-03-19T11:13:06;100510.78;;;14.37;100.00
24230;BME280;12362;50.004;8.006;2023-03-19T11:15:41;100517.38;;;14.56;100.00
24230;BME280;12362;50.004;8.006;2023-03-19T11:18:20;100507.34;;;14.23;100.00
24230;BME280;12362;50.004;8.006;2023-03-19T11:21:07;100522.34;;;14.33;100.00
24230;BME280;12362;50.004;8.006;2023-03-19T13:28:00;100503.88;;;15.03;100.00
24230;BME280;12362;50.004;8.006;2023-03-19T13:33:50;100499.06;;;14.56;100.00
24230;BME280;12362;50.004;8.006;2023-03-19T15:28:24;100438.78;;;14.98;100.00
24230;BME280;12362;50.004;8.006;2023-03-19T15:31:45;100430.31;;;15.46;100.00
24230;BME280;12362;50.004;8.006;2023-03-19T15:34:37;100423.50;;;16.17;100.00
24230;BME280;12362;50.004;8.006;2023-03-19T15:37:24;100420.00;;;16.05;100.00
24230;BME280;12362;50.004;8.006;2023-03-19T15:40:33;100428.41;;;15.73;100.00
24230;BME280;12362;50.004;8.006;2023-03-19T15:47:30;100440.03;;;15.32;100.00
24230;BME280;12362;50.004;8.006;2023-03-19T17:00:39;100506.88;;;14.30;100.00
24230;BME280;12362;50.004;8.006;2023-03-19T17:03:38;100514.06;;;14.27;100.00
24230;BME280;12362;50.004;8.006;2023-03-19T17:06:17;100517.66;;;14.10;100.00
24230;BME280;12362;50.004;8.006;2023-03-19T17:08:49;100516.38;;;14.03;100.00
24230;BME280;12362;50.004;8.006;2023-03-19T17:11:36;100519.78;;;14.04;100.00
24230;BME280;12362;50.004;8.006;2023-03-19T17:14:10;100518.22;;;14.01;100.00
24230;BME280;12362;50.004;8.006;2023-03-19T17:16:46;100525.69;;;14.07;100.00
24230;BME280;12362;50.004;8.006;2023-03-19T17:19:50;100524.59;;;13.97;100.00
24230;BME280;12362;50.004;8.006;2023-03-19T17:25:11;100535.84;;;13.84;100.00
24230;BME280;12362;50.004;8.006;2023-03-19T17:32:50;100547.38;;;13.80;100.00
24230;BME280;12362;50.004;8.006;2023-03-19T17:35:29;100548.03;;;13.69;100.00
24230;BME280;12362;50.004;8.006;2023-03-19T17:37:55;100546.13;;;13.58;100.00
24230;BME280;12362;50.004;8.006;2023-03-19T17:40:26;100561.66;;;13.45;100.00
24230;BME280;12362;50.004;8.006;2023-03-19T17:42:53;100568.53;;;13.32;100.00
24230;BME280;12362;50.004;8.006;2023-03-19T17:45:29;100568.53;;;13.17;100.00
24230;BME280;12362;50.004;8.006;2023-03-19T17:47:57;100572.25;;;12.97;100.00
24230;BME280;12362;50.004;8.006;2023-03-19T17:50:28;100573.34;;;12.78;100.00
24230;BME280;12362;50.004;8.006;2023-03-19T17:52:55;100573.25;;;12.64;100.00
24230;BME280;12362;50.004;8.006;2023-03-19T17:55:33;100574.56;;;12.56;100.00
24230;BME280;12362;50.004;8.006;2023-03-19T17:58:04;100579.28;;;12.49;100.00
24230;BME280;12362;50.004;8.006;2023-03-19T20:29:46;100766.28;;;7.89;100.00
24230;BME280;12362;50.004;8.006;2023-03-19T20:32:27;100765.94;;;7.73;100.00
24230;BME280;12362;50.004;8.006;2023-03-19T20:34:55;100774.56;;;7.72;100.00
24230;BME280;12362;50.004;8.006;2023-03-19T20:37:21;100773.91;;;7.66;100.00
24230;BME280;12362;50.004;8.006;2023-03-19T20:39:47;100778.09;;;7.70;100.00
24230;BME280;12362;50.004;8.006;2023-03-19T20:42:16;100781.22;;;7.81;100.00
24230;BME280;12362;50.004;8.006;2023-03-19T20:44:42;100784.06;;;7.44;100.00
24230;BME280;12362;50.004;8.006;2023-03-19T20:47:19;100786.59;;;7.17;100.00
24230;BME280;12362;50.004;8.006;2023-03-19T20:50:01;100782.94;;;7.24;100.00
24230;BME280;12362;50.004;8.006;2023-03-19T20:52:26;100794.06;;;7.26;100.00
24230;BME280;12362;50.004;8.006;2023-03-19T20:54:54;100791.81;;;7.16;100.00
24230;BME280;12362;50.004;8.006;2023-03-19T20:57:25;100800.13;;;6.96;100.00
24230;BME280;12362;50.004;8.006;2023-03-19T20:59:55;100804.59;;;6.90;100.00
24230;BME280;12362;50.004;8.006;2023-03-19T21:02:21;100817.31;;;6.97;100.00
24230;BME280;12362;50.004;8.006;2023-03-19T21:04:49;100823.69;;;7.15;100.00
24230;BME280;12362;50.004;8.006;2023-03-19T21:07:29;100818.13;;;7.28;100.00
24230;BME280;12362;50.004;8.006;2023-03-19T21:09:58;100826.34;;;7.40;100.00
24230;BME280;12362;50.004;8.006;2023-03-19T21:12:30;100829.47;;;7.22;100.00
24230;BME280;12362;50.004;8.006;2023-03-19T21:14:56;100832.47;;;7.09;100.00
24230;BME280;12362;50.004;8.006;2023-03-19T21:17:22;100833.97;;;7.16;100.00
24230;BME280;12362;50.004;8.006;2023-03-19T21:20:00;100835.53;;;7.21;100.00
24230;BME280;12362;50.004;8.006;2023-03-19T21:22:27;100834.56;;;7.25;100.00
24230;BME280;12362;50.004;8.006;2023-03-19T21:25:04;100832.44;;;7.39;100.00
24230;BME280;12362;50.004;8.006;2023-03-19T21:27:33;100827.97;;;7.44;100.00
24230;BME280;12362;50.004;8.006;2023-03-19T21:30:03;100840.59;;;7.55;100.00
24230;BME280;12362;50.004;8.006;2023-03-19T21:32:29;100838.53;;;7.66;100.00
24230;BME280;12362;50.004;8.006;2023-03-19T21:34:55;100839.88;;;7.77;100.00
24230;BME280;12362;50.004;8.006;2023-03-19T21:37:21;100844.88;;;7.83;100.00
24230;BME280;12362;50.004;8.006;2023-03-19T21:39:47;100842.97;;;7.88;100.00
24230;BME280;12362;50.004;8.006;2023-03-19T21:42:18;100844.50;;;7.95;100.00
24230;BME280;12362;50.004;8.006;2023-03-19T21:44:46;100836.44;;;8.04;100.00
24230;BME280;12362;50.004;8.006;2023-03-19T21:47:13;100829.78;;;8.24;100.00
24230;BME280;12362;50.004;8.006;2023-03-19T21:49:57;100844.03;;;8.37;100.00
24230;BME280;12362;50.004;8.006;2023-03-19T21:52:24;100835.19;;;8.69;100.00
24230;BME280;12362;50.004;8.006;2023-03-19T21:54:50;100839.78;;;8.85;100.00
24230;BME280;12362;50.004;8.006;2023-03-19T21:57:16;100839.53;;;8.93;100.00